createdAt,value
2019-04-16T00:00:52.540Z,36.10
2019-04-16T00:03:23.072Z,34.85
2019-04-16T00:06:01.955Z,38.73
2019-04-16T00:08:44.283Z,39.90
2019-04-16T00:11:26.343Z,37.45
2019-04-16T00:13:56.461Z,36.90
2019-04-16T00:16:25.005Z,40.03
2019-04-16T00:18:58.158Z,37.23
2019-04-16T00:21:25.312Z,34.05
2019-04-16T00:24:07.373Z,41.63
2019-04-16T00:26:35.933Z,41.33
2019-04-16T00:29:04.866Z,35.48
2019-04-16T00:31:34.415Z,37.65
2019-04-16T00:34:04.302Z,40.03
2019-04-16T00:36:32.842Z,37.50
2019-04-16T00:39:01.495Z,35.33
2019-04-16T00:41:30.082Z,37.00
2019-04-16T00:43:58.549Z,40.63
2019-04-16T00:46:27.010Z,38.10
2019-04-16T00:48:55.739Z,38.67
2019-04-16T00:51:24.829Z,37.28
2019-04-16T00:53:53.307Z,38.35
2019-04-16T00:56:21.763Z,37.58
2019-04-16T00:58:52.235Z,38.83
2019-04-16T01:01:20.436Z,39.25
2019-04-16T01:03:48.894Z,36.58
2019-04-16T01:06:17.752Z,40.65
2019-04-16T01:08:54.354Z,34.48
2019-04-16T01:11:16.400Z,35.68
2019-04-16T01:13:45.242Z,38.50
2019-04-16T01:16:14.347Z,35.75
2019-04-16T01:18:42.843Z,36.08
2019-04-16T01:21:13.771Z,40.75
2019-04-16T01:23:41.500Z,40.17
2019-04-16T01:26:09.982Z,38.50
2019-04-16T01:28:42.990Z,38.63
2019-04-16T01:31:22.239Z,37.85
2019-04-16T01:33:55.208Z,39.38
2019-04-16T01:36:25.404Z,38.60
2019-04-16T01:39:13.409Z,36.60
2019-04-16T01:41:25.668Z,36.30
2019-04-16T01:43:54.267Z,37.13
2019-04-16T01:46:24.348Z,36.53
2019-04-16T01:48:52.792Z,36.65
2019-04-16T01:51:21.272Z,37.88
2019-04-16T01:53:52.356Z,35.70
2019-04-16T01:56:19.940Z,33.78
2019-04-16T01:58:48.393Z,35.75
2019-04-16T02:01:16.854Z,36.75
2019-04-16T02:03:48.632Z,35.98
2019-04-16T02:06:15.921Z,34.08
2019-04-16T02:08:44.477Z,34.80
2019-04-16T02:11:12.956Z,35.38
2019-04-16T02:13:45.811Z,35.10
2019-04-16T02:16:11.691Z,38.17
2019-04-16T02:18:40.154Z,33.48
2019-04-16T02:21:10.513Z,34.67
2019-04-16T02:23:38.809Z,40.05
2019-04-16T02:26:07.274Z,39.67
2019-04-16T02:28:35.980Z,36.25
2019-04-16T02:31:04.645Z,37.83
2019-04-16T02:33:33.103Z,36.77
2019-04-16T02:36:01.579Z,37.75
2019-04-16T02:38:30.145Z,39.25
2019-04-16T02:40:58.673Z,37.78
2019-04-16T02:43:27.260Z,33.33
2019-04-16T02:45:58.424Z,36.77
2019-04-16T02:48:25.983Z,36.35
2019-04-16T02:51:07.361Z,35.30
2019-04-16T02:53:43.017Z,36.08
2019-04-16T02:56:17.214Z,35.17
2019-04-16T02:58:47.870Z,35.17
2019-04-16T03:01:30.102Z,34.40
2019-04-16T03:04:00.282Z,35.30
2019-04-16T03:06:31.686Z,35.70
2019-04-16T03:08:59.031Z,40.65
2019-04-16T03:11:27.563Z,32.73
2019-04-16T03:13:59.234Z,37.03
2019-04-16T03:16:38.102Z,35.33
2019-04-16T03:19:09.007Z,34.98
2019-04-16T03:21:37.485Z,38.58
2019-04-16T03:24:09.350Z,38.92
2019-04-16T03:26:36.186Z,38.15
2019-04-16T03:29:04.911Z,35.78
2019-04-16T03:31:33.438Z,38.45
2019-04-16T03:34:02.443Z,36.85
2019-04-16T03:36:31.045Z,38.53
2019-04-16T03:38:59.493Z,36.60
2019-04-16T03:41:27.974Z,36.98
2019-04-16T03:43:56.421Z,35.10
2019-04-16T03:46:24.915Z,35.70
2019-04-16T03:48:56.066Z,36.48
2019-04-16T03:51:23.941Z,36.35
2019-04-16T03:53:52.440Z,38.35
2019-04-16T03:56:20.916Z,38.58
2019-04-16T03:58:49.645Z,39.45
2019-04-16T04:01:18.222Z,35.38
2019-04-16T04:03:46.765Z,37.80
2019-04-16T04:06:15.660Z,39.60
2019-04-16T04:08:47.896Z,37.38
2019-04-16T04:11:14.346Z,34.95
2019-04-16T04:13:42.889Z,37.53
2019-04-16T04:16:12.217Z,42.78
2019-04-16T04:18:43.131Z,39.53
2019-04-16T04:21:10.893Z,37.17
2019-04-16T04:23:39.410Z,35.90
2019-04-16T04:26:08.873Z,42.35
2019-04-16T04:28:38.142Z,36.95
2019-04-16T04:31:06.863Z,39.40
2019-04-16T04:33:40.736Z,39.53
2019-04-16T04:36:09.802Z,42.98
2019-04-16T04:38:39.668Z,46.85
2019-04-16T04:41:08.664Z,45.23
2019-04-16T04:43:37.257Z,42.03
2019-04-16T04:46:05.958Z,44.77
2019-04-16T04:48:34.515Z,42.20
2019-04-16T04:51:06.991Z,37.55
2019-04-16T04:53:33.346Z,38.58
2019-04-16T04:56:01.820Z,39.78
2019-04-16T04:58:33.750Z,38.90
2019-04-16T05:01:00.543Z,39.92
2019-04-16T05:03:47.451Z,41.13
2019-04-16T05:06:27.802Z,39.08
2019-04-16T05:08:57.614Z,39.33
2019-04-16T05:11:25.243Z,39.60
2019-04-16T05:13:56.435Z,37.90
2019-04-16T05:16:23.951Z,39.80
2019-04-16T05:18:52.444Z,37.55
2019-04-16T05:21:20.980Z,39.30
2019-04-16T05:23:49.488Z,40.05
2019-04-16T05:26:17.934Z,39.67
2019-04-16T05:28:46.694Z,35.98
2019-04-16T05:31:15.400Z,38.45
2019-04-16T05:33:43.863Z,37.50
2019-04-16T05:36:14.182Z,38.80
2019-04-16T05:38:42.608Z,37.75
2019-04-16T05:41:13.695Z,33.98
2019-04-16T05:43:41.241Z,39.67
2019-04-16T05:46:09.885Z,41.08
2019-04-16T05:48:38.585Z,36.88
2019-04-16T05:51:07.052Z,36.48
2019-04-16T05:53:37.307Z,38.48
2019-04-16T05:56:11.788Z,38.25
2019-04-16T05:58:40.376Z,36.73
2019-04-16T06:01:14.149Z,35.35
2019-04-16T06:03:43.031Z,36.45
2019-04-16T06:06:11.493Z,34.08
2019-04-16T06:08:41.541Z,32.55
2019-04-16T06:11:10.215Z,33.80
2019-04-16T06:13:44.541Z,36.00
2019-04-16T06:16:17.960Z,33.67
2019-04-16T06:18:48.056Z,34.70
2019-04-16T06:21:25.822Z,35.05
2019-04-16T06:24:10.683Z,33.67
2019-04-16T06:26:55.864Z,36.40
2019-04-16T06:29:35.117Z,30.97
2019-04-16T06:32:11.851Z,32.75
2019-04-16T06:34:42.435Z,34.65
2019-04-16T06:37:17.989Z,35.75
2019-04-16T06:39:46.968Z,36.20
2019-04-16T06:42:25.954Z,33.18
2019-04-16T06:44:56.085Z,34.00
2019-04-16T06:47:28.722Z,34.70
2019-04-16T06:49:58.887Z,34.35
2019-04-16T06:52:34.979Z,30.12
2019-04-16T06:55:07.785Z,31.48
2019-04-16T06:57:40.359Z,31.97
2019-04-16T07:00:09.859Z,31.07
2019-04-16T07:02:43.143Z,30.40
2019-04-16T07:05:11.893Z,30.23
2019-04-16T07:07:48.003Z,31.27
2019-04-16T07:10:18.202Z,30.40
2019-04-16T07:12:46.953Z,27.45
2019-04-16T07:15:15.911Z,28.27
2019-04-16T07:17:44.383Z,33.48
2019-04-16T07:20:14.161Z,33.42
2019-04-16T07:22:42.917Z,32.53
2019-04-16T07:25:11.492Z,32.48
2019-04-16T07:27:41.788Z,31.97
2019-04-16T07:30:14.296Z,31.65
2019-04-16T07:32:44.733Z,31.07
2019-04-16T07:35:17.405Z,30.95
2019-04-16T07:37:59.329Z,27.98
2019-04-16T07:40:35.779Z,28.87
2019-04-16T07:43:06.043Z,33.20
2019-04-16T07:45:36.276Z,30.37
2019-04-16T07:48:15.400Z,28.87
2019-04-16T07:51:04.870Z,29.42
2019-04-16T07:53:33.671Z,29.35
2019-04-16T07:56:03.789Z,29.92
2019-04-16T07:58:32.358Z,30.10
2019-04-16T08:01:00.849Z,29.82
2019-04-16T08:03:29.472Z,32.42
2019-04-16T08:05:57.982Z,31.80
2019-04-16T08:08:28.121Z,31.60
2019-04-16T08:10:56.667Z,30.72
2019-04-16T08:13:26.806Z,31.10
2019-04-16T08:15:57.251Z,28.77
2019-04-16T08:18:27.169Z,29.02
2019-04-16T08:21:02.008Z,27.85
2019-04-16T08:23:39.179Z,30.72
2019-04-16T08:26:13.815Z,29.72
2019-04-16T08:28:43.810Z,28.42
2019-04-16T08:31:16.654Z,28.12
2019-04-16T08:33:45.151Z,27.93
2019-04-16T08:36:13.725Z,27.75
2019-04-16T08:38:42.273Z,29.30
2019-04-16T08:41:12.739Z,29.27
2019-04-16T08:43:40.938Z,30.92
2019-04-16T08:46:11.290Z,29.75
2019-04-16T08:48:39.730Z,27.67
2019-04-16T08:51:08.310Z,26.73
2019-04-16T08:53:36.854Z,26.20
2019-04-16T08:56:05.391Z,26.57
2019-04-16T08:58:35.690Z,27.50
2019-04-16T09:01:05.655Z,26.62
2019-04-16T09:03:34.157Z,27.15
2019-04-16T09:06:04.446Z,27.50
2019-04-16T09:08:46.334Z,28.83
2019-04-16T09:11:23.224Z,29.60
2019-04-16T09:13:48.181Z,29.35
2019-04-16T09:16:16.905Z,27.20
2019-04-16T09:18:47.012Z,26.45
2019-04-16T09:21:15.562Z,28.40
2019-04-16T09:23:48.019Z,26.12
2019-04-16T09:26:23.605Z,24.75
2019-04-16T09:28:51.910Z,29.23
2019-04-16T09:31:34.197Z,28.20
2019-04-16T09:34:06.416Z,29.25
2019-04-16T09:36:52.567Z,27.32
2019-04-16T09:39:22.875Z,29.32
2019-04-16T09:41:51.998Z,26.80
2019-04-16T09:44:20.591Z,25.12
2019-04-16T09:46:51.452Z,27.93
2019-04-16T09:49:19.445Z,27.82
2019-04-16T09:51:50.418Z,31.40
2019-04-16T09:54:18.199Z,24.95
2019-04-16T09:56:46.799Z,27.77
2019-04-16T09:59:17.153Z,27.37
2019-04-16T10:01:50.064Z,27.35
2019-04-16T10:04:19.930Z,26.33
2019-04-16T10:06:48.491Z,28.12
2019-04-16T10:09:21.955Z,29.02
2019-04-16T10:11:47.589Z,31.10
2019-04-16T10:14:16.091Z,28.35
2019-04-16T10:16:44.908Z,30.00
2019-04-16T10:19:13.495Z,28.30
2019-04-16T10:21:42.151Z,32.78
2019-04-16T10:24:15.096Z,27.52
2019-04-16T10:26:45.314Z,28.57
2019-04-16T10:29:21.693Z,29.92
2019-04-16T10:31:50.252Z,28.32
2019-04-16T10:34:18.867Z,28.42
2019-04-16T10:36:51.811Z,30.27
2019-04-16T10:39:25.039Z,27.73
2019-04-16T10:41:58.235Z,30.00
2019-04-16T10:44:28.420Z,30.12
2019-04-16T10:46:58.623Z,28.57
2019-04-16T10:49:28.830Z,30.43
2019-04-16T10:51:59.274Z,28.60
2019-04-16T10:54:33.761Z,29.23
2019-04-16T10:57:03.885Z,27.25
2019-04-16T10:59:36.772Z,29.82
2019-04-16T11:02:23.413Z,27.73
2019-04-16T11:04:53.617Z,31.62
2019-04-16T11:07:23.775Z,32.48
2019-04-16T11:09:52.417Z,28.15
2019-04-16T11:12:20.887Z,28.38
2019-04-16T11:14:49.445Z,28.15
2019-04-16T11:17:19.761Z,29.12
2019-04-16T11:19:52.555Z,30.45
2019-04-16T11:22:18.578Z,27.45
2019-04-16T11:24:47.128Z,27.80
2019-04-16T11:27:15.650Z,31.00
2019-04-16T11:29:44.131Z,29.37
2019-04-16T11:32:14.256Z,28.85
2019-04-16T11:34:42.880Z,32.50
2019-04-16T11:37:11.539Z,31.23
2019-04-16T11:39:40.123Z,28.90
2019-04-16T11:42:08.638Z,32.10
2019-04-16T11:44:37.231Z,29.07
2019-04-16T11:47:06.960Z,31.73
2019-04-16T11:49:35.508Z,30.35
2019-04-16T11:52:04.560Z,28.20
2019-04-16T11:54:36.202Z,33.45
2019-04-16T11:57:05.047Z,31.93
2019-04-16T11:59:33.623Z,26.33
2019-04-16T12:02:11.194Z,28.55
2019-04-16T12:04:50.223Z,29.00
2019-04-16T12:07:26.257Z,28.98
2019-04-16T12:09:59.355Z,28.62
2019-04-16T12:12:29.493Z,27.35
2019-04-16T12:15:02.740Z,27.93
2019-04-16T12:17:36.479Z,29.10
2019-04-16T12:20:22.397Z,31.73
2019-04-16T12:22:52.493Z,28.92
2019-04-16T12:25:26.637Z,33.83
2019-04-16T12:28:06.522Z,28.67
2019-04-16T12:30:53.346Z,27.30
2019-04-16T12:33:26.307Z,30.08
2019-04-16T12:35:56.466Z,30.13
2019-04-16T12:38:38.526Z,29.48
2019-04-16T12:41:25.062Z,31.55
2019-04-16T12:43:55.565Z,26.95
2019-04-16T12:46:25.769Z,26.27
2019-04-16T12:49:11.161Z,27.25
2019-04-16T12:51:47.250Z,25.80
2019-04-16T12:54:25.257Z,28.98
2019-04-16T12:56:52.124Z,24.23
2019-04-16T12:59:34.080Z,23.20
2019-04-16T13:02:13.405Z,22.25
2019-04-16T13:04:54.512Z,21.25
2019-04-16T13:07:25.109Z,19.30
2019-04-16T13:10:07.224Z,19.85
2019-04-16T13:12:37.416Z,22.73
2019-04-16T13:15:08.876Z,17.73
2019-04-16T13:17:51.670Z,20.30
2019-04-16T13:20:31.209Z,20.08
2019-04-16T13:23:16.126Z,19.23
2019-04-16T13:26:03.403Z,18.85
2019-04-16T13:28:31.916Z,19.45
2019-04-16T13:31:00.490Z,19.85
2019-04-16T13:33:29.054Z,20.30
2019-04-16T13:35:57.573Z,20.48
2019-04-16T13:38:27.805Z,18.70
2019-04-16T13:40:56.326Z,18.17
2019-04-16T13:43:29.018Z,18.35
2019-04-16T13:45:58.233Z,19.40
2019-04-16T13:48:45.471Z,20.32
2019-04-16T13:51:18.767Z,21.55
2019-04-16T13:53:53.533Z,20.40
2019-04-16T13:56:23.639Z,19.57
2019-04-16T13:58:59.016Z,19.65
2019-04-16T14:01:33.956Z,20.15
2019-04-16T14:04:02.871Z,18.45
2019-04-16T14:06:31.639Z,20.72
2019-04-16T14:09:00.174Z,18.75
2019-04-16T14:11:28.708Z,22.48
2019-04-16T14:13:57.200Z,26.85
2019-04-16T14:16:25.668Z,24.85
2019-04-16T14:18:54.139Z,24.00
2019-04-16T14:21:22.623Z,26.57
2019-04-16T14:23:51.395Z,25.62
2019-04-16T14:26:20.174Z,27.27
2019-04-16T14:28:52.332Z,26.60
2019-04-16T14:31:19.997Z,28.77
2019-04-16T14:34:08.660Z,23.38
2019-04-16T14:36:37.180Z,26.55
2019-04-16T14:39:15.285Z,26.52
2019-04-16T14:41:48.950Z,28.62
2019-04-16T14:44:16.303Z,27.67
2019-04-16T14:46:44.792Z,26.75
2019-04-16T14:49:15.107Z,29.30
2019-04-16T14:51:43.689Z,26.68
2019-04-16T14:54:16.814Z,24.40
2019-04-16T14:56:46.953Z,26.25
2019-04-16T14:59:33.652Z,27.98
2019-04-16T15:01:54.825Z,23.80
2019-04-16T15:04:30.684Z,27.60
2019-04-16T15:07:03.880Z,27.40
2019-04-16T15:09:51.938Z,25.08
2019-04-16T15:12:22.347Z,26.75
2019-04-16T15:14:58.603Z,26.02
2019-04-16T15:17:37.665Z,29.42
2019-04-16T15:20:22.840Z,30.23
2019-04-16T15:23:11.014Z,28.20
2019-04-16T15:25:57.583Z,28.77
2019-04-16T15:28:40.047Z,29.77
2019-04-16T15:31:12.702Z,28.50
2019-04-16T15:33:51.418Z,29.07
2019-04-16T15:36:24.209Z,31.23
2019-04-16T15:39:12.429Z,31.15
2019-04-16T15:41:44.603Z,29.30
2019-04-16T15:44:14.724Z,32.93
2019-04-16T15:47:02.569Z,32.28
2019-04-16T15:49:55.597Z,31.35
2019-04-16T15:52:29.273Z,32.60
2019-04-16T15:55:02.161Z,32.50
2019-04-16T15:57:35.076Z,33.97
2019-04-16T16:00:09.397Z,32.85
2019-04-16T16:02:45.249Z,33.25
2019-04-16T16:05:19.945Z,32.95
2019-04-16T16:07:56.077Z,32.00
2019-04-16T16:10:24.577Z,33.48
2019-04-16T16:12:53.641Z,32.80
2019-04-16T16:15:22.847Z,32.88
2019-04-16T16:17:51.313Z,34.13
2019-04-16T16:20:19.911Z,33.90
2019-04-16T16:22:48.395Z,34.67
2019-04-16T16:25:16.864Z,31.70
2019-04-16T16:27:47.201Z,34.43
2019-04-16T16:30:15.957Z,34.75
2019-04-16T16:32:44.505Z,38.50
2019-04-16T16:35:17.020Z,36.05
2019-04-16T16:37:43.176Z,37.45
2019-04-16T16:40:14.786Z,37.25
2019-04-16T16:42:42.242Z,37.95
2019-04-16T16:45:10.948Z,36.68
2019-04-16T16:47:40.180Z,33.78
2019-04-16T16:50:11.662Z,37.75
2019-04-16T16:52:42.459Z,36.08
2019-04-16T16:55:13.118Z,36.45
2019-04-16T16:57:46.080Z,37.63
2019-04-16T17:00:23.870Z,37.38
2019-04-16T17:03:00.174Z,38.40
2019-04-16T17:05:35.869Z,38.83
2019-04-16T17:08:04.633Z,37.75
2019-04-16T17:10:33.176Z,35.23
2019-04-16T17:13:01.628Z,38.17
2019-04-16T17:15:30.103Z,38.05
2019-04-16T17:17:58.916Z,40.60
2019-04-16T17:20:27.413Z,38.17
2019-04-16T17:22:55.947Z,39.58
2019-04-16T17:25:36.123Z,39.15
2019-04-16T17:27:54.769Z,38.48
2019-04-16T17:30:23.375Z,34.92
2019-04-16T17:32:51.860Z,38.33
2019-04-16T17:35:20.332Z,39.25
2019-04-16T17:37:48.821Z,39.08
2019-04-16T17:40:27.759Z,41.40
2019-04-16T17:43:03.829Z,36.93
2019-04-16T17:45:34.376Z,36.83
2019-04-16T17:48:07.108Z,38.65
2019-04-16T17:50:39.602Z,41.92
2019-04-16T17:53:25.332Z,39.20
2019-04-16T17:55:58.458Z,42.00
2019-04-16T17:58:28.555Z,43.80
2019-04-16T18:00:58.741Z,39.23
2019-04-16T18:03:38.649Z,41.88
2019-04-16T18:06:11.778Z,40.38
2019-04-16T18:08:44.325Z,44.85
2019-04-16T18:11:32.715Z,39.92
2019-04-16T18:14:06.418Z,42.50
2019-04-16T18:16:37.378Z,39.75
2019-04-16T18:19:07.883Z,44.13
2019-04-16T18:21:38.074Z,44.23
2019-04-16T18:24:14.074Z,46.80
2019-04-16T18:27:00.505Z,48.08
2019-04-16T18:29:32.886Z,43.15
2019-04-16T18:32:05.313Z,44.25
2019-04-16T18:34:35.446Z,45.45
2019-04-16T18:37:20.855Z,47.67
2019-04-16T18:39:53.677Z,45.67
2019-04-16T18:42:29.427Z,46.50
2019-04-16T18:45:02.289Z,49.55
2019-04-16T18:47:35.084Z,47.83
2019-04-16T18:50:06.025Z,49.73
2019-04-16T18:52:36.595Z,51.60
2019-04-16T18:55:06.447Z,49.48
2019-04-16T18:57:35.600Z,51.75
2019-04-16T19:00:11.308Z,48.52
2019-04-16T19:02:42.160Z,47.98
2019-04-16T19:05:10.178Z,48.75
2019-04-16T19:07:38.634Z,46.28
2019-04-16T19:10:07.325Z,48.20
2019-04-16T19:12:36.173Z,55.98
2019-04-16T19:15:05.223Z,53.78
2019-04-16T19:17:33.802Z,51.02
2019-04-16T19:20:04.349Z,50.65
2019-04-16T19:22:32.458Z,52.48
2019-04-16T19:25:00.960Z,50.10
2019-04-16T19:27:30.805Z,50.60
2019-04-16T19:29:59.752Z,48.13
2019-04-16T19:32:28.863Z,40.60
2019-04-16T19:35:09.561Z,40.78
2019-04-16T19:37:29.808Z,41.00
2019-04-16T19:39:57.973Z,39.05
2019-04-16T19:42:28.742Z,35.20
2019-04-16T19:44:56.637Z,34.50
2019-04-16T19:47:26.468Z,32.48
2019-04-16T19:49:55.361Z,31.82
2019-04-16T19:52:24.017Z,30.92
2019-04-16T19:54:53.101Z,30.43
2019-04-16T19:57:21.765Z,31.20
2019-04-16T19:59:50.324Z,29.52
2019-04-16T20:02:18.785Z,30.55
2019-04-16T20:04:50.548Z,28.95
2019-04-16T20:07:17.474Z,28.95
2019-04-16T20:09:45.933Z,30.77
2019-04-16T20:12:14.528Z,27.77
2019-04-16T20:14:42.979Z,31.12
2019-04-16T20:17:11.432Z,29.90
2019-04-16T20:19:58.126Z,30.92
2019-04-16T20:22:31.310Z,31.48
2019-04-16T20:24:59.837Z,27.02
2019-04-16T20:27:28.935Z,33.08
2019-04-16T20:29:57.413Z,30.80
2019-04-16T20:32:27.589Z,29.85
2019-04-16T20:34:56.105Z,28.05
2019-04-16T20:37:24.950Z,30.57
2019-04-16T20:39:53.641Z,31.12
2019-04-16T20:42:22.222Z,33.15
2019-04-16T20:44:50.754Z,29.42
2019-04-16T20:47:19.280Z,29.12
2019-04-16T20:49:49.287Z,31.52
2019-04-16T20:52:17.949Z,28.75
2019-04-16T20:54:48.198Z,34.38
2019-04-16T20:57:16.658Z,34.30
2019-04-16T20:59:45.165Z,33.58
2019-04-16T21:02:13.625Z,28.50
2019-04-16T21:04:42.118Z,27.85
2019-04-16T21:07:14.350Z,32.05
2019-04-16T21:09:41.031Z,27.58
2019-04-16T21:12:12.578Z,29.00
2019-04-16T21:14:39.841Z,29.63
2019-04-16T21:17:08.412Z,28.02
2019-04-16T21:19:46.748Z,30.37
2019-04-16T21:22:16.421Z,29.48
2019-04-16T21:24:46.415Z,28.83
2019-04-16T21:27:14.950Z,30.45
2019-04-16T21:29:43.711Z,34.70
2019-04-16T21:32:23.013Z,31.73
2019-04-16T21:34:58.695Z,33.00
2019-04-16T21:37:28.254Z,33.85
2019-04-16T21:39:58.417Z,32.80
2019-04-16T21:42:26.941Z,33.00
2019-04-16T21:44:55.401Z,34.40
2019-04-16T21:47:24.587Z,33.67
2019-04-16T21:49:54.346Z,33.67
2019-04-16T21:52:23.831Z,32.38
2019-04-16T21:54:53.205Z,34.70
2019-04-16T21:57:21.692Z,36.13
2019-04-16T21:59:56.704Z,36.83
2019-04-16T22:02:25.109Z,36.80
2019-04-16T22:04:53.627Z,38.65
2019-04-16T22:07:24.738Z,39.65
2019-04-16T22:09:52.562Z,39.80
2019-04-16T22:12:21.476Z,38.13
2019-04-16T22:14:51.022Z,39.13
2019-04-16T22:17:20.411Z,39.05
2019-04-16T22:19:54.435Z,40.67
2019-04-16T22:22:19.114Z,39.35
2019-04-16T22:24:47.578Z,41.42
2019-04-16T22:27:16.100Z,43.40
2019-04-16T22:29:47.208Z,44.60
2019-04-16T22:32:15.015Z,41.68
2019-04-16T22:34:43.521Z,46.77
2019-04-16T22:37:12.104Z,38.20
2019-04-16T22:39:51.849Z,45.40
2019-04-16T22:42:31.338Z,48.90
2019-04-16T22:45:10.460Z,45.45
2019-04-16T22:47:40.629Z,53.52
2019-04-16T22:50:16.028Z,52.78
2019-04-16T22:52:41.639Z,49.58
2019-04-16T22:55:09.990Z,51.63
2019-04-16T22:57:38.574Z,50.12
2019-04-16T23:00:12.827Z,57.95
2019-04-16T23:02:39.412Z,54.08
2019-04-16T23:05:07.898Z,54.98
2019-04-16T23:07:36.680Z,59.20
2019-04-16T23:10:06.686Z,59.70
2019-04-16T23:12:35.232Z,57.60
2019-04-16T23:15:05.617Z,56.13
2019-04-16T23:17:34.118Z,57.53
2019-04-16T23:20:02.600Z,53.02
2019-04-16T23:22:31.123Z,54.50
2019-04-16T23:24:59.625Z,53.33
2019-04-16T23:27:28.146Z,50.83
2019-04-16T23:29:56.669Z,54.77
2019-04-16T23:32:28.626Z,62.58
2019-04-16T23:34:55.970Z,60.50
2019-04-16T23:37:24.468Z,67.32
2019-04-16T23:39:53.054Z,66.40
2019-04-16T23:42:21.592Z,55.45
2019-04-16T23:44:54.694Z,63.60
2019-04-16T23:47:28.455Z,67.17
2019-04-16T23:50:10.266Z,67.53
2019-04-16T23:52:40.400Z,63.75
2019-04-16T23:55:17.548Z,68.20
2019-04-16T23:58:03.633Z,62.95
